createdAt,value
2023-04-30T00:04:35.566Z,98291.56
2023-04-30T00:09:37.715Z,98296.81
2023-04-30T00:14:40.134Z,98289.91
2023-04-30T00:19:42.968Z,98291.59
2023-04-30T00:24:45.522Z,98293.59
2023-04-30T00:29:47.721Z,98286.53
2023-04-30T00:34:50.112Z,98295.81
2023-04-30T00:39:52.850Z,98297.09
2023-04-30T00:44:55.209Z,98299.94
2023-04-30T00:49:58.798Z,98292.13
2023-04-30T00:55:01.174Z,98301.44
2023-04-30T01:00:04.471Z,98298.06
2023-04-30T01:05:08.115Z,98299.53
2023-04-30T01:10:12.507Z,98299.03
2023-04-30T01:15:27.627Z,98293.94
2023-04-30T01:20:32.338Z,98300.94
2023-04-30T01:25:58.366Z,98296.91
2023-04-30T01:31:00.673Z,98282.78
2023-04-30T01:36:36.059Z,98281.94
2023-04-30T01:42:02.418Z,98280.53
2023-04-30T01:47:25.775Z,98288.81
2023-04-30T01:52:45.119Z,98285.25
2023-04-30T01:58:00.704Z,98285.44
2023-04-30T02:03:03.284Z,98284.00
2023-04-30T02:08:06.354Z,98286.28
2023-04-30T02:13:08.999Z,98280.19
2023-04-30T02:18:11.321Z,98282.56
2023-04-30T02:23:13.595Z,98286.72
2023-04-30T02:28:15.813Z,98282.78
2023-04-30T02:33:17.954Z,98281.50
2023-04-30T02:38:20.058Z,98283.59
2023-04-30T02:43:22.481Z,98275.69
2023-04-30T02:48:24.964Z,98284.63
2023-04-30T02:53:27.558Z,98276.66
2023-04-30T02:58:29.737Z,98285.53
2023-04-30T03:03:32.242Z,98284.06
2023-04-30T03:08:34.544Z,98284.19
2023-04-30T03:13:36.766Z,98276.81
2023-04-30T03:18:38.911Z,98280.38
2023-04-30T03:23:41.178Z,98273.50
2023-04-30T03:28:43.457Z,98273.72
2023-04-30T03:33:45.750Z,98278.97
2023-04-30T03:38:47.964Z,98271.44
2023-04-30T03:43:50.290Z,98277.69
2023-04-30T03:48:52.734Z,98273.41
2023-04-30T03:53:56.033Z,98278.69
2023-04-30T03:58:58.530Z,98281.63
2023-04-30T04:04:01.624Z,98277.00
2023-04-30T04:09:04.950Z,98274.94
2023-04-30T04:14:07.125Z,98282.56
2023-04-30T04:19:09.274Z,98291.66
2023-04-30T04:24:11.504Z,98294.84
2023-04-30T04:29:13.762Z,98289.38
2023-04-30T04:34:16.958Z,98295.97
2023-04-30T04:39:19.045Z,98298.81
2023-04-30T04:44:21.881Z,98298.16
2023-04-30T04:49:24.240Z,98302.84
2023-04-30T04:54:27.659Z,98300.91
2023-04-30T04:59:30.700Z,98305.78
2023-04-30T05:04:33.019Z,98295.63
2023-04-30T05:09:35.105Z,98302.31
2023-04-30T05:14:37.581Z,98303.63
2023-04-30T05:19:39.668Z,98302.28
2023-04-30T05:24:41.839Z,98295.09
2023-04-30T05:29:44.061Z,98296.53
2023-04-30T05:34:46.200Z,98309.31
2023-04-30T05:39:48.828Z,98308.31
2023-04-30T05:44:51.131Z,98296.03
2023-04-30T05:49:53.512Z,98300.44
2023-04-30T05:54:55.858Z,98297.69
2023-04-30T05:59:57.994Z,98301.59
2023-04-30T06:05:02.190Z,98305.28
2023-04-30T06:10:05.092Z,98312.59
2023-04-30T06:15:08.131Z,98308.97
2023-04-30T06:20:10.909Z,98314.69
2023-04-30T06:25:13.112Z,98314.47
2023-04-30T06:30:15.575Z,98311.44
2023-04-30T06:35:17.788Z,98319.22
2023-04-30T06:40:20.779Z,98318.09
2023-04-30T06:45:23.067Z,98316.66
2023-04-30T06:50:25.174Z,98318.81
2023-04-30T06:55:28.265Z,98319.84
2023-04-30T07:00:33.048Z,98322.94
2023-04-30T07:05:35.397Z,98315.66
2023-04-30T07:10:37.568Z,98314.72
2023-04-30T07:15:40.395Z,98311.63
2023-04-30T07:20:42.646Z,98314.03
2023-04-30T07:25:44.924Z,98300.78
2023-04-30T07:30:47.278Z,98296.56
2023-04-30T07:35:49.445Z,98302.31
2023-04-30T07:40:51.629Z,98303.16
2023-04-30T07:45:54.845Z,98298.19
2023-04-30T07:50:57.711Z,98294.47
2023-04-30T07:55:59.915Z,98291.78
2023-04-30T08:01:02.106Z,98291.28
2023-04-30T08:06:06.162Z,98287.97
2023-04-30T08:11:08.364Z,98304.41
2023-04-30T08:16:10.550Z,98298.88
2023-04-30T08:21:13.980Z,98283.06
2023-04-30T08:26:16.096Z,98300.25
2023-04-30T08:31:21.274Z,98292.94
2023-04-30T08:36:23.511Z,98293.59
2023-04-30T08:41:30.599Z,98291.69
2023-04-30T08:46:35.751Z,98289.41
2023-04-30T08:51:38.233Z,98292.28
2023-04-30T08:56:41.556Z,98293.50
2023-04-30T09:01:43.937Z,98291.75
2023-04-30T09:06:46.427Z,98286.88
2023-04-30T09:11:48.624Z,98287.06
2023-04-30T09:16:53.016Z,98286.84
2023-04-30T09:21:56.529Z,98285.81
2023-04-30T09:26:58.768Z,98279.19
2023-04-30T09:32:10.094Z,98280.53
2023-04-30T09:37:12.616Z,98280.28
2023-04-30T09:42:15.134Z,98283.91
2023-04-30T09:47:20.617Z,98281.72
2023-04-30T09:52:23.669Z,98280.66
2023-04-30T09:57:30.578Z,98280.28
2023-04-30T10:02:34.283Z,98280.44
2023-04-30T10:07:40.908Z,98281.09
2023-04-30T10:12:53.503Z,98278.16
2023-04-30T10:18:05.955Z,98276.69
2023-04-30T10:23:08.814Z,98269.72
2023-04-30T10:28:11.857Z,98267.16
2023-04-30T10:33:17.117Z,98265.38
2023-04-30T10:38:25.442Z,98264.69
2023-04-30T10:43:30.641Z,98268.13
2023-04-30T10:48:36.081Z,98270.38
2023-04-30T10:53:40.442Z,98257.84
2023-04-30T10:58:44.296Z,98266.38
2023-04-30T11:04:10.710Z,98248.78
2023-04-30T11:09:13.098Z,98238.06
2023-04-30T11:14:21.615Z,98253.88
2023-04-30T11:19:25.250Z,98243.16
2023-04-30T11:24:55.513Z,98238.56
2023-04-30T11:29:59.485Z,98230.25
2023-04-30T11:35:06.868Z,98237.31
2023-04-30T11:40:12.073Z,98237.50
2023-04-30T11:45:23.567Z,98234.47
2023-04-30T11:50:29.690Z,98228.84
2023-04-30T11:55:32.121Z,98213.53
2023-04-30T12:00:34.658Z,98216.75
2023-04-30T12:05:37.091Z,98210.00
2023-04-30T12:10:39.433Z,98199.03
2023-04-30T12:15:41.794Z,98201.59
2023-04-30T12:20:44.575Z,98199.09
2023-04-30T12:25:47.822Z,98198.97
2023-04-30T12:30:50.025Z,98201.31
2023-04-30T12:35:54.137Z,98207.59
2023-04-30T12:40:57.248Z,98207.06
2023-04-30T12:45:59.816Z,98209.13
2023-04-30T12:51:03.066Z,98205.25
2023-04-30T12:56:18.169Z,98196.56
2023-04-30T13:01:23.241Z,98186.22
2023-04-30T13:06:25.735Z,98178.13
2023-04-30T13:11:28.418Z,98179.25
2023-04-30T13:16:31.980Z,98174.09
2023-04-30T13:21:34.218Z,98158.41
2023-04-30T13:26:37.139Z,98151.09
2023-04-30T13:31:39.240Z,98149.84
2023-04-30T13:36:41.425Z,98153.16
2023-04-30T13:41:43.547Z,98156.41
2023-04-30T13:46:45.865Z,98151.69
2023-04-30T13:51:48.128Z,98149.22
2023-04-30T13:56:50.584Z,98147.78
2023-04-30T14:01:52.837Z,98145.69
2023-04-30T14:06:56.881Z,98145.88
2023-04-30T14:11:59.272Z,98132.84
2023-04-30T14:17:02.165Z,98135.06
2023-04-30T14:22:04.441Z,98122.50
2023-04-30T14:27:07.105Z,98126.84
2023-04-30T14:32:09.329Z,98126.44
2023-04-30T14:37:11.858Z,98120.56
2023-04-30T14:42:14.330Z,98106.53
2023-04-30T14:47:16.743Z,98099.44
2023-04-30T14:52:19.998Z,98095.78
2023-04-30T14:57:23.618Z,98096.41
2023-04-30T15:02:25.884Z,98094.22
2023-04-30T15:07:28.316Z,98089.19
2023-04-30T15:12:30.492Z,98083.16
2023-04-30T15:17:37.267Z,98069.00
2023-04-30T15:22:40.620Z,98067.44
2023-04-30T15:27:43.002Z,98063.50
2023-04-30T15:32:47.655Z,98069.50
2023-04-30T15:37:51.751Z,98077.75
2023-04-30T15:42:53.857Z,98077.91
2023-04-30T15:47:56.129Z,98074.41
2023-04-30T15:52:58.632Z,98069.97
2023-04-30T15:58:01.057Z,98063.56
2023-04-30T16:03:03.541Z,98055.88
2023-04-30T16:08:09.585Z,98059.06
2023-04-30T16:13:11.841Z,98052.34
2023-04-30T16:18:14.027Z,98052.81
2023-04-30T16:23:16.855Z,98048.06
2023-04-30T16:28:21.528Z,98047.38
2023-04-30T16:33:25.411Z,98047.53
2023-04-30T16:38:27.726Z,98042.25
2023-04-30T16:43:29.848Z,98021.91
2023-04-30T16:48:32.012Z,98021.16
2023-04-30T16:53:36.298Z,98017.31
2023-04-30T16:58:41.398Z,98011.09
2023-04-30T17:03:43.753Z,98023.28
2023-04-30T17:08:46.137Z,98021.03
2023-04-30T17:13:48.544Z,98024.44
2023-04-30T17:18:50.656Z,98025.78
2023-04-30T17:23:52.942Z,98035.69
2023-04-30T17:28:55.065Z,98023.53
2023-04-30T17:33:57.337Z,98023.78
2023-04-30T17:39:02.791Z,98031.00
2023-04-30T17:44:05.110Z,98028.91
2023-04-30T17:49:07.946Z,98037.00
2023-04-30T17:54:10.233Z,98037.16
2023-04-30T17:59:12.738Z,98041.72
2023-04-30T18:04:20.817Z,98037.19
2023-04-30T18:09:24.084Z,98038.56
2023-04-30T18:14:26.168Z,98039.22
2023-04-30T18:19:28.478Z,98037.91
2023-04-30T18:24:30.890Z,98042.25
2023-04-30T18:29:33.149Z,98043.25
2023-04-30T18:34:35.354Z,98047.31
2023-04-30T18:39:37.577Z,98035.47
2023-04-30T18:44:39.828Z,98041.31
2023-04-30T18:49:43.319Z,98035.00
2023-04-30T18:54:45.535Z,98039.31
2023-04-30T18:59:48.304Z,98042.88
2023-04-30T19:04:52.355Z,98046.16
2023-04-30T19:09:55.856Z,98044.72
2023-04-30T19:14:58.987Z,98044.75
2023-04-30T19:20:01.281Z,98044.47
2023-04-30T19:25:04.258Z,98048.00
2023-04-30T19:30:07.457Z,98052.13
2023-04-30T19:35:09.983Z,98060.66
2023-04-30T19:40:12.991Z,98060.97
2023-04-30T19:45:15.195Z,98061.56
2023-04-30T19:50:17.654Z,98061.72
2023-04-30T19:55:19.973Z,98061.25
2023-04-30T20:00:23.484Z,98050.28
2023-04-30T20:05:25.875Z,98050.28
2023-04-30T20:10:28.195Z,98054.25
2023-04-30T20:15:30.882Z,98054.84
2023-04-30T20:20:33.245Z,98054.19
2023-04-30T20:25:35.828Z,98043.97
2023-04-30T20:30:38.141Z,98050.53
2023-04-30T20:35:47.654Z,98057.22
2023-04-30T20:40:50.583Z,98051.38
2023-04-30T20:45:59.025Z,98051.53
2023-04-30T20:51:01.393Z,98047.47
2023-04-30T20:56:04.590Z,98051.56
2023-04-30T21:01:07.474Z,98041.38
2023-04-30T21:06:10.310Z,98044.72
2023-04-30T21:11:14.300Z,98035.28
2023-04-30T21:16:16.562Z,98038.44
2023-04-30T21:21:18.880Z,98027.13
2023-04-30T21:26:21.907Z,98033.56
2023-04-30T21:31:24.880Z,98034.06
2023-04-30T21:36:29.240Z,98034.97
2023-04-30T21:41:32.332Z,98014.31
2023-04-30T21:46:34.484Z,98013.72
2023-04-30T21:56:41.367Z,98010.81
2023-04-30T22:01:43.578Z,98007.78
2023-04-30T22:06:46.378Z,98000.38
2023-04-30T22:11:49.710Z,98001.75
2023-04-30T22:16:51.992Z,97990.94
2023-04-30T22:21:54.157Z,97987.53
2023-04-30T22:26:56.543Z,97979.03
2023-04-30T22:31:58.740Z,97988.41
2023-04-30T22:37:01.005Z,97979.22
2023-04-30T22:42:05.050Z,97979.16
2023-04-30T22:47:07.376Z,97975.16
2023-04-30T22:52:09.806Z,97978.34
2023-04-30T22:57:12.239Z,97973.44
2023-04-30T23:02:15.149Z,97974.31
2023-04-30T23:07:17.481Z,97978.28
2023-04-30T23:12:19.618Z,97971.25
2023-04-30T23:17:23.452Z,97971.31
2023-04-30T23:22:25.773Z,97967.91
2023-04-30T23:27:28.900Z,97962.22
2023-04-30T23:32:31.696Z,97954.53
2023-04-30T23:37:35.303Z,97958.84
2023-04-30T23:42:37.404Z,97950.16
2023-04-30T23:47:39.837Z,97955.59
2023-04-30T23:52:41.982Z,97954.28
2023-04-30T23:57:44.200Z,97952.56
